world map with HOG marked

HOG - Airport

This information may not be accurate or current and is not valid for navigation or flight planning. No warranty of fitness for any purpose is made or implied.

flag of Cuba

Donate via PayPal

Additional information is available on the NEW Great Circle Mapper

Location
City:  Holguín, Holguín, Cuba
Name:Frank País International Airport
ICAO / IATA:MUHG / HOG

Details
Type:Airport (Aerodrome, Airfield)
Use:Public/Civil
Latitude:20°47'08"N (20.785556)
Longitude:76°18'54"W (-76.314999)
Elevation:361 ft (110 m)
Runways:1
Longest:11490 × 148 ft (3502 × 45 m)

Time
Timezone:UTC+29:08 (DST+32:08)
Local Time:

Weather
METAR:MUHG  190550Z 10007KT CAVOK 21/20 Q1017
TAF:MUHG  (expired)

Related Locations
Nearby:
Farthest:EXM: 11771 mi / 18944 km
Exmouth Gulf, WA, AU

Find:

   beyond  
but within

Other Information
Maps:
Sources:

  

Airport Diagram

Airport diagram for HOG

Airport diagram PDF

 


Great Circle Mapper   Great Circle Mapper
Great Circle Mapper FAQ   Great Circle Mapper FAQ
  Karl's Home Page
KLS²   KLS² Home
   GC on Facebook
Airlines of the World   Airlines of the World
Donate via PayPal


Copyright © 2004-2019, Karl L. Swartz. All rights reserved.
All trademarks mentioned herein belong to their respective owners.

Please see credits for attribution and copyright information.

Karl Swartz <karl@kls2.com>
  Powered by FreeBSD
Valid HTML 4.01!
Labeled with ICRA
hCard Microformat
Geo Microformat